Terminal Aerodrome Forecast
Issued by NWS

Home | Current Version | Previous Version | Text Only | Print | Product List | Glossary On
Versions: 1 2 3 4 5 6 7 8 9 10 11 12 13 14
000
FTUS45 KREV 250500
TAFRNO
TAF
KRNO 250521Z 2506/2606 17011KT P6SM FEW200
     FM251400 20012G24KT P6SM SCT200
     FM252000 22026G38KT P6SM SCT100 BKN200
     FM260200 25014G22KT P6SM SCT100 BKN200=

USA.gov is the U.S. government's official web portal to all federal, state and local government web resources and services.